sensor_id;sensor_type;location;lat;lon;timestamp;pressure;altitude;pressure_sealevel;temperature;humidity
8627;BME280;4351;51.422;6.794;2022-07-12T00:00:31;101863.72;;;15.70;100.00
8627;BME280;4351;51.422;6.794;2022-07-12T00:03:00;101866.25;;;15.73;100.00
8627;BME280;4351;51.422;6.794;2022-07-12T00:05:28;101878.19;;;15.70;100.00
8627;BME280;4351;51.422;6.794;2022-07-12T00:07:56;101884.81;;;15.66;100.00
8627;BME280;4351;51.422;6.794;2022-07-12T00:10:26;101871.41;;;15.63;100.00
8627;BME280;4351;51.422;6.794;2022-07-12T00:12:54;101867.03;;;15.60;100.00
8627;BME280;4351;51.422;6.794;2022-07-12T00:15:23;101869.44;;;15.65;100.00
8627;BME280;4351;51.422;6.794;2022-07-12T00:17:51;101866.94;;;15.62;100.00
8627;BME280;4351;51.422;6.794;2022-07-12T00:20:19;101861.78;;;15.57;100.00
8627;BME280;4351;51.422;6.794;2022-07-12T00:22:48;101860.91;;;15.57;100.00
8627;BME280;4351;51.422;6.794;2022-07-12T00:25:17;101853.72;;;15.56;100.00
8627;BME280;4351;51.422;6.794;2022-07-12T00:27:46;101847.22;;;15.44;100.00
8627;BME280;4351;51.422;6.794;2022-07-12T00:30:15;101841.59;;;15.47;100.00
8627;BME280;4351;51.422;6.794;2022-07-12T00:32:43;101835.59;;;15.42;100.00
8627;BME280;4351;51.422;6.794;2022-07-12T00:35:11;101825.97;;;15.36;100.00
8627;BME280;4351;51.422;6.794;2022-07-12T00:37:41;101821.63;;;15.33;100.00
8627;BME280;4351;51.422;6.794;2022-07-12T00:40:10;101812.97;;;15.26;100.00
8627;BME280;4351;51.422;6.794;2022-07-12T00:42:39;101808.97;;;15.32;100.00
8627;BME280;4351;51.422;6.794;2022-07-12T00:45:09;101815.47;;;15.29;100.00
8627;BME280;4351;51.422;6.794;2022-07-12T00:47:40;101809.38;;;15.26;100.00
8627;BME280;4351;51.422;6.794;2022-07-12T00:50:12;101803.28;;;15.22;100.00
8627;BME280;4351;51.422;6.794;2022-07-12T00:52:42;101796.97;;;15.22;100.00
8627;BME280;4351;51.422;6.794;2022-07-12T00:55:11;101789.97;;;15.17;100.00
8627;BME280;4351;51.422;6.794;2022-07-12T00:57:41;101790.38;;;15.11;100.00
8627;BME280;4351;51.422;6.794;2022-07-12T01:00:13;101786.66;;;15.12;100.00
8627;BME280;4351;51.422;6.794;2022-07-12T01:02:43;101791.44;;;15.09;100.00
8627;BME280;4351;51.422;6.794;2022-07-12T01:05:11;101793.38;;;15.07;100.00
8627;BME280;4351;51.422;6.794;2022-07-12T01:07:40;101790.72;;;15.05;100.00
8627;BME280;4351;51.422;6.794;2022-07-12T01:10:09;101782.31;;;14.95;100.00
8627;BME280;4351;51.422;6.794;2022-07-12T01:12:40;101781.13;;;14.99;100.00
8627;BME280;4351;51.422;6.794;2022-07-12T01:15:09;101776.88;;;14.95;100.00
8627;BME280;4351;51.422;6.794;2022-07-12T01:17:39;101778.81;;;14.93;100.00
8627;BME280;4351;51.422;6.794;2022-07-12T01:20:08;101781.91;;;14.87;100.00
8627;BME280;4351;51.422;6.794;2022-07-12T01:22:39;101789.44;;;14.81;100.00
8627;BME280;4351;51.422;6.794;2022-07-12T01:25:10;101791.91;;;14.86;100.00
8627;BME280;4351;51.422;6.794;2022-07-12T01:27:38;101793.84;;;14.84;100.00
8627;BME280;4351;51.422;6.794;2022-07-12T01:30:07;101793.91;;;14.82;100.00
8627;BME280;4351;51.422;6.794;2022-07-12T01:32:35;101798.75;;;14.77;100.00
8627;BME280;4351;51.422;6.794;2022-07-12T01:35:06;101800.19;;;14.83;100.00
8627;BME280;4351;51.422;6.794;2022-07-12T01:37:36;101800.69;;;14.75;100.00
8627;BME280;4351;51.422;6.794;2022-07-12T01:40:07;101812.44;;;14.76;100.00
8627;BME280;4351;51.422;6.794;2022-07-12T01:42:38;101800.69;;;14.75;100.00
8627;BME280;4351;51.422;6.794;2022-07-12T01:45:07;101810.00;;;14.71;100.00
8627;BME280;4351;51.422;6.794;2022-07-12T01:47:36;101810.16;;;14.68;100.00
8627;BME280;4351;51.422;6.794;2022-07-12T01:50:05;101808.34;;;14.68;100.00
8627;BME280;4351;51.422;6.794;2022-07-12T01:52:38;101811.94;;;14.69;100.00
8627;BME280;4351;51.422;6.794;2022-07-12T01:55:08;101814.25;;;14.60;100.00
8627;BME280;4351;51.422;6.794;2022-07-12T01:57:41;101815.44;;;14.71;100.00
8627;BME280;4351;51.422;6.794;2022-07-12T02:00:11;101824.13;;;14.62;100.00
8627;BME280;4351;51.422;6.794;2022-07-12T02:02:39;101828.09;;;14.56;100.00
8627;BME280;4351;51.422;6.794;2022-07-12T02:05:08;101831.00;;;14.53;100.00
8627;BME280;4351;51.422;6.794;2022-07-12T02:07:36;101827.22;;;14.55;100.00
8627;BME280;4351;51.422;6.794;2022-07-12T02:10:07;101828.72;;;14.61;100.00
8627;BME280;4351;51.422;6.794;2022-07-12T02:12:35;101840.34;;;14.63;100.00
8627;BME280;4351;51.422;6.794;2022-07-12T02:15:07;101844.00;;;14.62;100.00
8627;BME280;4351;51.422;6.794;2022-07-12T02:17:38;101849.63;;;14.59;100.00
8627;BME280;4351;51.422;6.794;2022-07-12T02:20:09;101852.25;;;14.60;100.00
8627;BME280;4351;51.422;6.794;2022-07-12T02:22:37;101850.13;;;14.66;100.00
8627;BME280;4351;51.422;6.794;2022-07-12T02:25:06;101858.47;;;14.63;100.00
8627;BME280;4351;51.422;6.794;2022-07-12T02:27:34;101858.47;;;14.63;100.00
8627;BME280;4351;51.422;6.794;2022-07-12T02:30:03;101865.63;;;14.64;100.00
8627;BME280;4351;51.422;6.794;2022-07-12T02:32:33;101873.38;;;14.55;100.00
8627;BME280;4351;51.422;6.794;2022-07-12T02:35:01;101885.63;;;14.63;100.00
8627;BME280;4351;51.422;6.794;2022-07-12T02:37:30;101909.03;;;14.65;100.00
8627;BME280;4351;51.422;6.794;2022-07-12T02:39:59;101905.06;;;14.55;100.00
8627;BME280;4351;51.422;6.794;2022-07-12T02:42:41;101934.59;;;14.61;100.00
8627;BME280;4351;51.422;6.794;2022-07-12T02:45:10;101941.47;;;14.52;100.00
8627;BME280;4351;51.422;6.794;2022-07-12T02:47:40;101935.94;;;14.54;100.00
8627;BME280;4351;51.422;6.794;2022-07-12T02:50:08;101959.13;;;14.59;100.00
8627;BME280;4351;51.422;6.794;2022-07-12T02:52:37;101972.31;;;14.66;100.00
8627;BME280;4351;51.422;6.794;2022-07-12T02:55:06;101977.16;;;14.60;100.00
8627;BME280;4351;51.422;6.794;2022-07-12T02:57:34;101987.84;;;14.64;100.00
8627;BME280;4351;51.422;6.794;2022-07-12T03:00:03;101998.91;;;14.60;100.00
8627;BME280;4351;51.422;6.794;2022-07-12T03:02:33;102011.50;;;14.62;100.00
8627;BME280;4351;51.422;6.794;2022-07-12T03:05:03;102024.22;;;14.61;100.00
8627;BME280;4351;51.422;6.794;2022-07-12T03:07:32;102022.34;;;14.62;100.00
8627;BME280;4351;51.422;6.794;2022-07-12T03:10:00;102041.63;;;14.57;100.00
8627;BME280;4351;51.422;6.794;2022-07-12T03:12:28;102046.09;;;14.58;100.00
8627;BME280;4351;51.422;6.794;2022-07-12T03:14:56;102055.28;;;14.55;100.00
8627;BME280;4351;51.422;6.794;2022-07-12T03:17:24;102066.94;;;14.57;98.26
8627;BME280;4351;51.422;6.794;2022-07-12T03:19:53;102080.63;;;14.56;93.72
8627;BME280;4351;51.422;6.794;2022-07-12T03:22:22;102099.78;;;14.53;88.95
8627;BME280;4351;51.422;6.794;2022-07-12T03:24:50;102108.19;;;14.48;86.26
8627;BME280;4351;51.422;6.794;2022-07-12T03:27:19;102115.03;;;14.55;83.80
8627;BME280;4351;51.422;6.794;2022-07-12T03:29:47;102109.59;;;14.55;82.53
8627;BME280;4351;51.422;6.794;2022-07-12T03:32:17;102116.03;;;14.54;81.37
8627;BME280;4351;51.422;6.794;2022-07-12T03:34:46;102124.22;;;14.53;80.84
8627;BME280;4351;51.422;6.794;2022-07-12T03:37:14;102114.25;;;14.53;81.44
8627;BME280;4351;51.422;6.794;2022-07-12T03:39:43;102116.88;;;14.55;81.33
8627;BME280;4351;51.422;6.794;2022-07-12T03:42:12;102114.09;;;14.56;83.25
8627;BME280;4351;51.422;6.794;2022-07-12T03:44:40;102110.91;;;14.48;86.72
8627;BME280;4351;51.422;6.794;2022-07-12T03:47:08;102109.78;;;14.52;87.83
8627;BME280;4351;51.422;6.794;2022-07-12T03:49:36;102094.91;;;14.43;90.78
8627;BME280;4351;51.422;6.794;2022-07-12T03:52:05;102093.91;;;14.44;91.81
8627;BME280;4351;51.422;6.794;2022-07-12T03:54:33;102100.03;;;14.48;91.78
8627;BME280;4351;51.422;6.794;2022-07-12T03:57:04;102107.41;;;14.46;92.36
8627;BME280;4351;51.422;6.794;2022-07-12T03:59:41;102101.19;;;14.44;92.50
8627;BME280;4351;51.422;6.794;2022-07-12T04:02:10;102105.91;;;14.40;92.08
8627;BME280;4351;51.422;6.794;2022-07-12T04:04:38;102109.59;;;14.39;90.66
8627;BME280;4351;51.422;6.794;2022-07-12T04:07:08;102114.31;;;14.35;89.96
8627;BME280;4351;51.422;6.794;2022-07-12T04:09:36;102127.47;;;14.43;87.08
8627;BME280;4351;51.422;6.794;2022-07-12T04:12:07;102131.13;;;14.42;85.36
8627;BME280;4351;51.422;6.794;2022-07-12T04:14:35;102142.09;;;14.41;84.94
8627;BME280;4351;51.422;6.794;2022-07-12T04:17:04;102141.84;;;14.45;84.58
8627;BME280;4351;51.422;6.794;2022-07-12T04:19:32;102139.03;;;14.47;84.44
8627;BME280;4351;51.422;6.794;2022-07-12T04:22:01;102148.91;;;14.48;84.53
8627;BME280;4351;51.422;6.794;2022-07-12T04:24:29;102143.56;;;14.46;85.03
8627;BME280;4351;51.422;6.794;2022-07-12T04:26:57;102148.13;;;14.46;85.10
8627;BME280;4351;51.422;6.794;2022-07-12T04:29:27;102157.69;;;14.53;84.35
8627;BME280;4351;51.422;6.794;2022-07-12T04:31:55;102154.09;;;14.53;84.54
8627;BME280;4351;51.422;6.794;2022-07-12T04:34:23;102149.38;;;14.56;84.36
8627;BME280;4351;51.422;6.794;2022-07-12T04:36:51;102156.47;;;14.59;84.29
8627;BME280;4351;51.422;6.794;2022-07-12T04:39:21;102155.25;;;14.65;83.65
8627;BME280;4351;51.422;6.794;2022-07-12T04:41:50;102157.78;;;14.68;83.65
8627;BME280;4351;51.422;6.794;2022-07-12T04:44:18;102164.75;;;14.74;83.54
8627;BME280;4351;51.422;6.794;2022-07-12T04:46:48;102170.06;;;14.75;82.96
8627;BME280;4351;51.422;6.794;2022-07-12T04:49:16;102165.19;;;14.82;81.72
8627;BME280;4351;51.422;6.794;2022-07-12T04:51:45;102159.75;;;14.82;81.77
8627;BME280;4351;51.422;6.794;2022-07-12T04:54:13;102172.91;;;14.90;80.36
8627;BME280;4351;51.422;6.794;2022-07-12T04:56:41;102176.25;;;14.95;76.93
8627;BME280;4351;51.422;6.794;2022-07-12T04:59:10;102191.34;;;15.01;72.26
8627;BME280;4351;51.422;6.794;2022-07-12T05:01:38;102208.34;;;15.04;67.49
8627;BME280;4351;51.422;6.794;2022-07-12T05:04:08;102239.63;;;15.12;62.40
8627;BME280;4351;51.422;6.794;2022-07-12T05:06:36;102249.72;;;15.10;58.37
8627;BME280;4351;51.422;6.794;2022-07-12T05:09:05;102287.72;;;15.11;54.76
8627;BME280;4351;51.422;6.794;2022-07-12T05:11:33;102302.78;;;15.17;51.32
8627;BME280;4351;51.422;6.794;2022-07-12T05:14:07;102336.91;;;15.23;49.09
8627;BME280;4351;51.422;6.794;2022-07-12T05:16:35;102357.25;;;15.32;47.38
8627;BME280;4351;51.422;6.794;2022-07-12T05:19:04;102375.00;;;15.39;46.21
8627;BME280;4351;51.422;6.794;2022-07-12T05:21:33;102391.16;;;15.42;45.37
8627;BME280;4351;51.422;6.794;2022-07-12T05:24:02;102417.03;;;15.49;44.57
8627;BME280;4351;51.422;6.794;2022-07-12T05:26:30;102442.94;;;15.57;43.92
8627;BME280;4351;51.422;6.794;2022-07-12T05:28:58;102460.69;;;15.64;43.32
8627;BME280;4351;51.422;6.794;2022-07-12T05:31:27;102481.13;;;15.71;42.84
8627;BME280;4351;51.422;6.794;2022-07-12T05:33:55;102513.53;;;15.76;42.47
8627;BME280;4351;51.422;6.794;2022-07-12T05:36:23;102549.53;;;15.81;42.22
8627;BME280;4351;51.422;6.794;2022-07-12T05:38:53;102564.53;;;15.89;42.03
8627;BME280;4351;51.422;6.794;2022-07-12T05:41:22;102581.59;;;15.92;41.87
8627;BME280;4351;51.422;6.794;2022-07-12T05:43:50;102599.63;;;15.95;41.82
8627;BME280;4351;51.422;6.794;2022-07-12T05:46:21;102612.88;;;16.01;41.72
8627;BME280;4351;51.422;6.794;2022-07-12T05:48:50;102627.94;;;16.08;41.64
8627;BME280;4351;51.422;6.794;2022-07-12T05:51:18;102653.22;;;16.11;41.60
8627;BME280;4351;51.422;6.794;2022-07-12T05:54:06;102664.53;;;16.20;41.61
8627;BME280;4351;51.422;6.794;2022-07-12T05:56:38;102658.88;;;16.24;41.71
8627;BME280;4351;51.422;6.794;2022-07-12T05:59:21;102639.31;;;16.33;41.86
8627;BME280;4351;51.422;6.794;2022-07-12T06:02:02;102611.41;;;16.46;42.08
8627;BME280;4351;51.422;6.794;2022-07-12T06:04:31;102595.69;;;16.51;42.31
8627;BME280;4351;51.422;6.794;2022-07-12T06:07:24;102569.13;;;16.54;42.66
8627;BME280;4351;51.422;6.794;2022-07-12T06:09:54;102557.72;;;16.64;42.98
8627;BME280;4351;51.422;6.794;2022-07-12T06:13:35;102524.03;;;16.81;43.72
8627;BME280;4351;51.422;6.794;2022-07-12T06:16:48;102496.41;;;16.87;44.91
8627;BME280;4351;51.422;6.794;2022-07-12T06:19:19;102472.66;;;16.89;46.30
8627;BME280;4351;51.422;6.794;2022-07-12T06:21:47;102456.75;;;16.98;47.85
8627;BME280;4351;51.422;6.794;2022-07-12T06:24:15;102431.03;;;17.02;50.06
8627;BME280;4351;51.422;6.794;2022-07-12T06:26:44;102420.81;;;17.06;53.16
8627;BME280;4351;51.422;6.794;2022-07-12T06:38:13;102269.00;;;17.35;92.60
8627;BME280;4351;51.422;6.794;2022-07-12T07:13:27;102006.16;;;18.28;100.00
8627;BME280;4351;51.422;6.794;2022-07-12T07:17:12;101999.47;;;18.32;100.00
8627;BME280;4351;51.422;6.794;2022-07-12T07:20:38;102014.75;;;18.48;100.00
8627;BME280;4351;51.422;6.794;2022-07-12T07:23:07;102007.78;;;18.68;100.00
8627;BME280;4351;51.422;6.794;2022-07-12T07:26:08;102002.31;;;18.68;100.00
8627;BME280;4351;51.422;6.794;2022-07-12T07:28:41;101994.41;;;18.77;100.00
8627;BME280;4351;51.422;6.794;2022-07-12T07:31:23;101995.03;;;18.80;100.00
8627;BME280;4351;51.422;6.794;2022-07-12T07:37:39;102007.03;;;19.02;100.00
8627;BME280;4351;51.422;6.794;2022-07-12T07:40:08;102010.53;;;19.04;100.00
8627;BME280;4351;51.422;6.794;2022-07-12T07:42:39;102017.13;;;19.02;100.00
8627;BME280;4351;51.422;6.794;2022-07-12T07:45:09;102018.03;;;19.14;100.00
8627;BME280;4351;51.422;6.794;2022-07-12T07:48:08;102014.53;;;19.12;100.00
8627;BME280;4351;51.422;6.794;2022-07-12T07:51:26;102013.53;;;19.26;100.00
8627;BME280;4351;51.422;6.794;2022-07-12T08:02:03;102059.97;;;19.62;100.00
8627;BME280;4351;51.422;6.794;2022-07-12T08:05:09;102049.16;;;19.60;100.00
8627;BME280;4351;51.422;6.794;2022-07-12T08:11:57;102044.75;;;20.17;100.00
8627;BME280;4351;51.422;6.794;2022-07-12T08:29:47;102055.88;;;20.71;100.00
8627;BME280;4351;51.422;6.794;2022-07-12T08:32:55;102061.41;;;20.48;100.00
8627;BME280;4351;51.422;6.794;2022-07-12T08:35:33;102060.41;;;20.49;100.00
8627;BME280;4351;51.422;6.794;2022-07-12T08:38:03;102070.25;;;20.52;100.00
8627;BME280;4351;51.422;6.794;2022-07-12T08:40:50;102072.31;;;20.71;100.00
8627;BME280;4351;51.422;6.794;2022-07-12T08:47:38;102070.97;;;20.65;100.00
8627;BME280;4351;51.422;6.794;2022-07-12T08:50:35;102068.84;;;20.69;100.00
8627;BME280;4351;51.422;6.794;2022-07-12T08:53:12;102067.63;;;20.62;100.00
8627;BME280;4351;51.422;6.794;2022-07-12T08:56:29;102067.72;;;20.60;100.00
8627;BME280;4351;51.422;6.794;2022-07-12T08:59:17;102075.31;;;20.68;100.00
8627;BME280;4351;51.422;6.794;2022-07-12T09:02:03;102070.47;;;20.60;100.00
8627;BME280;4351;51.422;6.794;2022-07-12T09:09:42;102082.06;;;20.75;100.00
8627;BME280;4351;51.422;6.794;2022-07-12T12:23:41;102052.06;;;25.24;100.00
8627;BME280;4351;51.422;6.794;2022-07-12T13:04:10;102043.22;;;25.92;100.00
8627;BME280;4351;51.422;6.794;2022-07-12T13:07:24;102036.28;;;25.88;100.00
8627;BME280;4351;51.422;6.794;2022-07-12T13:10:15;102032.13;;;26.18;100.00
8627;BME280;4351;51.422;6.794;2022-07-12T13:12:53;102033.22;;;25.91;100.00
8627;BME280;4351;51.422;6.794;2022-07-12T13:16:17;102041.50;;;25.91;100.00
8627;BME280;4351;51.422;6.794;2022-07-12T13:19:24;102033.72;;;25.86;100.00
8627;BME280;4351;51.422;6.794;2022-07-12T13:26:15;102030.03;;;25.77;100.00
8627;BME280;4351;51.422;6.794;2022-07-12T13:28:53;102026.25;;;25.87;100.00
8627;BME280;4351;51.422;6.794;2022-07-12T13:35:23;102026.19;;;26.05;100.00
8627;BME280;4351;51.422;6.794;2022-07-12T13:38:01;102025.03;;;26.24;100.00
8627;BME280;4351;51.422;6.794;2022-07-12T13:40:43;102023.81;;;26.62;100.00
8627;BME280;4351;51.422;6.794;2022-07-12T13:43:36;102020.97;;;26.37;100.00
8627;BME280;4351;51.422;6.794;2022-07-12T13:46:14;102022.97;;;26.26;100.00
8627;BME280;4351;51.422;6.794;2022-07-12T13:48:57;102014.88;;;26.33;100.00
8627;BME280;4351;51.422;6.794;2022-07-12T13:55:22;102014.47;;;26.55;100.00
8627;BME280;4351;51.422;6.794;2022-07-12T13:58:52;102010.28;;;26.42;100.00
8627;BME280;4351;51.422;6.794;2022-07-12T14:01:25;102013.75;;;26.52;100.00
8627;BME280;4351;51.422;6.794;2022-07-12T14:11:50;102019.72;;;26.39;100.00
8627;BME280;4351;51.422;6.794;2022-07-12T14:18:12;102014.47;;;26.55;100.00
8627;BME280;4351;51.422;6.794;2022-07-12T14:20:52;102002.03;;;26.67;99.39
8627;BME280;4351;51.422;6.794;2022-07-12T14:23:31;101998.25;;;26.77;100.00
8627;BME280;4351;51.422;6.794;2022-07-12T14:26:17;102008.97;;;26.80;100.00
8627;BME280;4351;51.422;6.794;2022-07-12T14:29:12;102006.50;;;26.51;100.00
8627;BME280;4351;51.422;6.794;2022-07-12T14:32:09;102007.25;;;26.87;99.98
8627;BME280;4351;51.422;6.794;2022-07-12T14:35:09;102009.13;;;26.78;100.00
8627;BME280;4351;51.422;6.794;2022-07-12T14:38:22;102005.81;;;26.49;100.00
8627;BME280;4351;51.422;6.794;2022-07-12T14:41:17;101999.94;;;26.61;100.00
8627;BME280;4351;51.422;6.794;2022-07-12T14:48:46;101995.31;;;26.26;100.00
8627;BME280;4351;51.422;6.794;2022-07-12T14:52:12;101995.41;;;26.43;100.00
8627;BME280;4351;51.422;6.794;2022-07-12T14:55:09;101989.47;;;26.29;100.00
8627;BME280;4351;51.422;6.794;2022-07-12T15:19:07;101982.31;;;27.20;91.56
8627;BME280;4351;51.422;6.794;2022-07-12T15:31:24;101970.22;;;26.88;89.99
8627;BME280;4351;51.422;6.794;2022-07-12T15:39:10;101957.06;;;26.82;97.16
8627;BME280;4351;51.422;6.794;2022-07-12T15:55:21;101941.69;;;26.54;84.21
8627;BME280;4351;51.422;6.794;2022-07-12T16:16:03;101914.84;;;26.88;98.33
8627;BME280;4351;51.422;6.794;2022-07-12T16:18:33;101914.72;;;26.65;100.00
8627;BME280;4351;51.422;6.794;2022-07-12T16:21:07;101915.91;;;26.70;97.88
8627;BME280;4351;51.422;6.794;2022-07-12T16:23:36;101913.50;;;26.67;93.40
8627;BME280;4351;51.422;6.794;2022-07-12T16:26:08;101917.47;;;26.56;92.29
8627;BME280;4351;51.422;6.794;2022-07-12T16:28:42;101920.56;;;26.45;93.65
8627;BME280;4351;51.422;6.794;2022-07-12T16:31:19;101914.03;;;26.46;98.25
8627;BME280;4351;51.422;6.794;2022-07-12T16:34:19;101905.53;;;26.81;93.32
8627;BME280;4351;51.422;6.794;2022-07-12T16:37:07;101905.88;;;26.52;94.61
8627;BME280;4351;51.422;6.794;2022-07-12T17:26:48;101892.81;;;26.11;100.00
8627;BME280;4351;51.422;6.794;2022-07-12T17:29:48;101899.22;;;26.03;100.00
8627;BME280;4351;51.422;6.794;2022-07-12T18:03:35;101895.59;;;25.68;100.00
8627;BME280;4351;51.422;6.794;2022-07-12T18:06:20;101891.41;;;25.55;100.00
8627;BME280;4351;51.422;6.794;2022-07-12T18:09:11;101897.16;;;25.62;100.00
8627;BME280;4351;51.422;6.794;2022-07-12T18:11:43;101893.81;;;25.50;100.00
8627;BME280;4351;51.422;6.794;2022-07-12T18:15:16;101898.22;;;25.34;100.00
8627;BME280;4351;51.422;6.794;2022-07-12T18:34:51;101900.66;;;25.11;100.00
8627;BME280;4351;51.422;6.794;2022-07-12T18:46:30;101899.22;;;24.98;100.00
8627;BME280;4351;51.422;6.794;2022-07-12T18:49:26;101902.66;;;24.82;100.00
8627;BME280;4351;51.422;6.794;2022-07-12T18:56:42;101895.16;;;24.66;100.00
